sensor_id;sensor_type;location;lat;lon;timestamp;P1;durP1;ratioP1;P2;durP2;ratioP2
44452;SDS011;30155;52.164;21.236;2024-01-30T00:03:21;30.70;;;19.10;;
44452;SDS011;30155;52.164;21.236;2024-01-30T00:08:14;32.80;;;17.80;;
44452;SDS011;30155;52.164;21.236;2024-01-30T00:13:11;27.60;;;14.70;;
44452;SDS011;30155;52.164;21.236;2024-01-30T00:18:06;23.90;;;15.70;;
44452;SDS011;30155;52.164;21.236;2024-01-30T00:33:44;33.30;;;15.80;;
44452;SDS011;30155;52.164;21.236;2024-01-30T00:38:37;27.40;;;17.30;;
44452;SDS011;30155;52.164;21.236;2024-01-30T00:56:13;29.40;;;15.80;;
44452;SDS011;30155;52.164;21.236;2024-01-30T01:01:09;27.30;;;16.00;;
44452;SDS011;30155;52.164;21.236;2024-01-30T01:18:52;29.60;;;15.70;;
44452;SDS011;30155;52.164;21.236;2024-01-30T01:23:45;23.10;;;16.80;;
44452;SDS011;30155;52.164;21.236;2024-01-30T01:28:40;24.80;;;16.70;;
44452;SDS011;30155;52.164;21.236;2024-01-30T01:33:33;31.40;;;17.30;;
44452;SDS011;30155;52.164;21.236;2024-01-30T01:38:28;25.60;;;15.80;;
44452;SDS011;30155;52.164;21.236;2024-01-30T01:43:21;26.80;;;17.00;;
44452;SDS011;30155;52.164;21.236;2024-01-30T01:48:14;31.20;;;16.30;;
44452;SDS011;30155;52.164;21.236;2024-01-30T01:53:08;28.40;;;17.90;;
44452;SDS011;30155;52.164;21.236;2024-01-30T01:58:01;29.10;;;16.10;;
44452;SDS011;30155;52.164;21.236;2024-01-30T02:02:54;27.40;;;16.30;;
44452;SDS011;30155;52.164;21.236;2024-01-30T02:07:47;28.90;;;16.70;;
44452;SDS011;30155;52.164;21.236;2024-01-30T02:12:40;29.90;;;17.70;;
44452;SDS011;30155;52.164;21.236;2024-01-30T02:17:33;24.80;;;15.80;;
44452;SDS011;30155;52.164;21.236;2024-01-30T02:22:26;24.90;;;16.60;;
44452;SDS011;30155;52.164;21.236;2024-01-30T02:27:19;26.00;;;15.50;;
44452;SDS011;30155;52.164;21.236;2024-01-30T02:32:11;27.50;;;16.10;;
44452;SDS011;30155;52.164;21.236;2024-01-30T02:37:04;29.70;;;18.00;;
44452;SDS011;30155;52.164;21.236;2024-01-30T02:41:57;31.60;;;17.30;;
44452;SDS011;30155;52.164;21.236;2024-01-30T02:46:50;33.30;;;17.70;;
44452;SDS011;30155;52.164;21.236;2024-01-30T02:51:45;34.00;;;19.80;;
44452;SDS011;30155;52.164;21.236;2024-01-30T02:56:38;34.00;;;18.30;;
44452;SDS011;30155;52.164;21.236;2024-01-30T03:01:31;31.70;;;19.30;;
44452;SDS011;30155;52.164;21.236;2024-01-30T03:06:24;31.40;;;17.70;;
44452;SDS011;30155;52.164;21.236;2024-01-30T03:11:17;31.30;;;19.00;;
44452;SDS011;30155;52.164;21.236;2024-01-30T03:16:10;35.30;;;17.90;;
44452;SDS011;30155;52.164;21.236;2024-01-30T03:21:03;30.60;;;18.20;;
44452;SDS011;30155;52.164;21.236;2024-01-30T03:25:55;30.60;;;19.30;;
44452;SDS011;30155;52.164;21.236;2024-01-30T03:30:48;30.60;;;19.40;;
44452;SDS011;30155;52.164;21.236;2024-01-30T03:35:41;33.40;;;18.20;;
44452;SDS011;30155;52.164;21.236;2024-01-30T03:40:34;28.80;;;18.00;;
44452;SDS011;30155;52.164;21.236;2024-01-30T03:45:27;28.60;;;17.60;;
44452;SDS011;30155;52.164;21.236;2024-01-30T03:50:19;31.90;;;18.80;;
44452;SDS011;30155;52.164;21.236;2024-01-30T03:55:12;31.00;;;18.60;;
44452;SDS011;30155;52.164;21.236;2024-01-30T04:00:05;34.90;;;18.90;;
44452;SDS011;30155;52.164;21.236;2024-01-30T04:05:04;34.60;;;19.50;;
44452;SDS011;30155;52.164;21.236;2024-01-30T04:09:57;34.10;;;19.80;;
44452;SDS011;30155;52.164;21.236;2024-01-30T04:14:49;27.80;;;17.00;;
44452;SDS011;30155;52.164;21.236;2024-01-30T04:19:42;32.20;;;19.10;;
44452;SDS011;30155;52.164;21.236;2024-01-30T04:24:35;33.80;;;20.40;;
44452;SDS011;30155;52.164;21.236;2024-01-30T04:29:28;35.00;;;18.80;;
44452;SDS011;30155;52.164;21.236;2024-01-30T04:34:20;30.30;;;18.40;;
44452;SDS011;30155;52.164;21.236;2024-01-30T04:39:13;32.30;;;18.10;;
44452;SDS011;30155;52.164;21.236;2024-01-30T04:44:06;33.50;;;20.10;;
44452;SDS011;30155;52.164;21.236;2024-01-30T04:48:59;37.10;;;20.70;;
44452;SDS011;30155;52.164;21.236;2024-01-30T04:53:52;33.70;;;20.90;;
44452;SDS011;30155;52.164;21.236;2024-01-30T04:58:45;38.90;;;22.50;;
44452;SDS011;30155;52.164;21.236;2024-01-30T05:03:38;35.50;;;19.20;;
44452;SDS011;30155;52.164;21.236;2024-01-30T05:08:30;32.50;;;20.40;;
44452;SDS011;30155;52.164;21.236;2024-01-30T05:13:23;32.40;;;20.90;;
44452;SDS011;30155;52.164;21.236;2024-01-30T05:18:16;30.60;;;19.70;;
44452;SDS011;30155;52.164;21.236;2024-01-30T05:23:09;39.80;;;22.50;;
44452;SDS011;30155;52.164;21.236;2024-01-30T05:28:02;34.70;;;21.20;;
44452;SDS011;30155;52.164;21.236;2024-01-30T05:32:55;40.00;;;22.20;;
44452;SDS011;30155;52.164;21.236;2024-01-30T05:37:48;33.90;;;22.00;;
44452;SDS011;30155;52.164;21.236;2024-01-30T05:42:41;40.60;;;20.70;;
44452;SDS011;30155;52.164;21.236;2024-01-30T05:47:34;31.10;;;19.90;;
44452;SDS011;30155;52.164;21.236;2024-01-30T05:52:27;34.10;;;20.50;;
44452;SDS011;30155;52.164;21.236;2024-01-30T05:57:20;34.00;;;19.80;;
44452;SDS011;30155;52.164;21.236;2024-01-30T06:02:13;31.90;;;21.40;;
44452;SDS011;30155;52.164;21.236;2024-01-30T06:07:06;41.90;;;23.60;;
44452;SDS011;30155;52.164;21.236;2024-01-30T06:11:59;32.50;;;21.90;;
44452;SDS011;30155;52.164;21.236;2024-01-30T06:16:52;33.50;;;22.00;;
44452;SDS011;30155;52.164;21.236;2024-01-30T06:21:45;37.90;;;24.10;;
44452;SDS011;30155;52.164;21.236;2024-01-30T06:26:37;36.70;;;22.20;;
44452;SDS011;30155;52.164;21.236;2024-01-30T06:31:31;40.20;;;24.70;;
44452;SDS011;30155;52.164;21.236;2024-01-30T06:36:24;34.50;;;23.00;;
44452;SDS011;30155;52.164;21.236;2024-01-30T06:41:17;36.00;;;21.10;;
44452;SDS011;30155;52.164;21.236;2024-01-30T06:46:09;42.40;;;23.60;;
44452;SDS011;30155;52.164;21.236;2024-01-30T06:51:02;39.40;;;21.80;;
44452;SDS011;30155;52.164;21.236;2024-01-30T06:55:56;38.30;;;22.90;;
44452;SDS011;30155;52.164;21.236;2024-01-30T07:00:48;38.40;;;22.30;;
44452;SDS011;30155;52.164;21.236;2024-01-30T07:05:41;39.30;;;23.00;;
44452;SDS011;30155;52.164;21.236;2024-01-30T07:10:34;37.80;;;22.90;;
44452;SDS011;30155;52.164;21.236;2024-01-30T07:15:27;35.40;;;21.40;;
44452;SDS011;30155;52.164;21.236;2024-01-30T07:20:20;33.50;;;22.20;;
44452;SDS011;30155;52.164;21.236;2024-01-30T07:25:13;36.90;;;22.30;;
44452;SDS011;30155;52.164;21.236;2024-01-30T07:30:07;35.90;;;23.20;;
44452;SDS011;30155;52.164;21.236;2024-01-30T07:34:59;38.30;;;20.50;;
44452;SDS011;30155;52.164;21.236;2024-01-30T07:39:59;41.60;;;24.30;;
44452;SDS011;30155;52.164;21.236;2024-01-30T07:44:52;34.30;;;20.70;;
44452;SDS011;30155;52.164;21.236;2024-01-30T07:49:45;31.90;;;20.60;;
44452;SDS011;30155;52.164;21.236;2024-01-30T07:54:38;34.40;;;19.50;;
44452;SDS011;30155;52.164;21.236;2024-01-30T07:59:31;38.40;;;21.50;;
44452;SDS011;30155;52.164;21.236;2024-01-30T08:04:23;36.90;;;20.00;;
44452;SDS011;30155;52.164;21.236;2024-01-30T08:09:16;37.90;;;21.60;;
44452;SDS011;30155;52.164;21.236;2024-01-30T08:14:09;31.90;;;19.50;;
44452;SDS011;30155;52.164;21.236;2024-01-30T08:19:02;29.30;;;18.30;;
44452;SDS011;30155;52.164;21.236;2024-01-30T08:23:55;33.80;;;20.60;;
44452;SDS011;30155;52.164;21.236;2024-01-30T08:28:48;30.70;;;19.10;;
44452;SDS011;30155;52.164;21.236;2024-01-30T08:33:41;30.60;;;19.30;;
44452;SDS011;30155;52.164;21.236;2024-01-30T08:38:36;30.80;;;18.60;;
44452;SDS011;30155;52.164;21.236;2024-01-30T08:43:28;30.40;;;20.00;;
44452;SDS011;30155;52.164;21.236;2024-01-30T08:48:21;29.20;;;18.50;;
44452;SDS011;30155;52.164;21.236;2024-01-30T08:53:14;27.20;;;18.10;;
44452;SDS011;30155;52.164;21.236;2024-01-30T08:58:07;31.90;;;19.00;;
44452;SDS011;30155;52.164;21.236;2024-01-30T09:03:00;34.20;;;20.80;;
44452;SDS011;30155;52.164;21.236;2024-01-30T09:07:53;26.90;;;18.50;;
44452;SDS011;30155;52.164;21.236;2024-01-30T09:12:46;32.30;;;19.60;;
44452;SDS011;30155;52.164;21.236;2024-01-30T09:17:39;25.10;;;16.70;;
44452;SDS011;30155;52.164;21.236;2024-01-30T09:22:32;30.50;;;19.10;;
44452;SDS011;30155;52.164;21.236;2024-01-30T09:27:25;29.30;;;19.00;;
44452;SDS011;30155;52.164;21.236;2024-01-30T09:32:18;31.00;;;18.60;;
44452;SDS011;30155;52.164;21.236;2024-01-30T09:37:11;28.30;;;17.90;;
44452;SDS011;30155;52.164;21.236;2024-01-30T09:42:37;27.30;;;17.90;;
44452;SDS011;30155;52.164;21.236;2024-01-30T09:47:38;25.40;;;17.70;;
44452;SDS011;30155;52.164;21.236;2024-01-30T09:52:33;27.80;;;17.60;;
44452;SDS011;30155;52.164;21.236;2024-01-30T09:57:27;30.60;;;18.50;;
44452;SDS011;30155;52.164;21.236;2024-01-30T10:02:20;28.90;;;18.50;;
44452;SDS011;30155;52.164;21.236;2024-01-30T10:07:14;26.70;;;17.40;;
44452;SDS011;30155;52.164;21.236;2024-01-30T10:12:08;26.40;;;16.30;;
44452;SDS011;30155;52.164;21.236;2024-01-30T10:17:01;25.80;;;16.50;;
44452;SDS011;30155;52.164;21.236;2024-01-30T10:22:07;23.50;;;15.40;;
44452;SDS011;30155;52.164;21.236;2024-01-30T10:27:01;23.10;;;16.90;;
44452;SDS011;30155;52.164;21.236;2024-01-30T10:31:58;25.20;;;17.20;;
44452;SDS011;30155;52.164;21.236;2024-01-30T10:36:59;23.30;;;16.40;;
44452;SDS011;30155;52.164;21.236;2024-01-30T10:42:00;27.70;;;16.10;;
44452;SDS011;30155;52.164;21.236;2024-01-30T10:46:59;22.40;;;17.10;;
44452;SDS011;30155;52.164;21.236;2024-01-30T10:51:56;21.60;;;15.80;;
44452;SDS011;30155;52.164;21.236;2024-01-30T10:56:50;21.60;;;16.50;;
44452;SDS011;30155;52.164;21.236;2024-01-30T11:01:43;18.60;;;15.40;;
44452;SDS011;30155;52.164;21.236;2024-01-30T11:06:41;18.40;;;14.50;;
44452;SDS011;30155;52.164;21.236;2024-01-30T11:11:51;17.90;;;15.00;;
44452;SDS011;30155;52.164;21.236;2024-01-30T11:16:44;18.00;;;15.90;;
44452;SDS011;30155;52.164;21.236;2024-01-30T11:21:42;18.90;;;15.70;;
44452;SDS011;30155;52.164;21.236;2024-01-30T11:26:35;19.70;;;15.70;;
44452;SDS011;30155;52.164;21.236;2024-01-30T11:31:28;18.00;;;14.80;;
44452;SDS011;30155;52.164;21.236;2024-01-30T11:36:23;16.90;;;13.90;;
44452;SDS011;30155;52.164;21.236;2024-01-30T11:46:10;16.20;;;14.00;;
44452;SDS011;30155;52.164;21.236;2024-01-30T11:51:03;20.80;;;15.70;;
44452;SDS011;30155;52.164;21.236;2024-01-30T11:55:57;17.30;;;14.60;;
44452;SDS011;30155;52.164;21.236;2024-01-30T12:00:54;21.80;;;14.60;;
44452;SDS011;30155;52.164;21.236;2024-01-30T12:05:56;17.00;;;14.70;;
44452;SDS011;30155;52.164;21.236;2024-01-30T12:10:57;18.40;;;14.70;;
44452;SDS011;30155;52.164;21.236;2024-01-30T12:15:52;17.90;;;14.10;;
44452;SDS011;30155;52.164;21.236;2024-01-30T12:20:45;21.10;;;14.20;;
44452;SDS011;30155;52.164;21.236;2024-01-30T12:25:38;18.60;;;13.30;;
44452;SDS011;30155;52.164;21.236;2024-01-30T12:30:31;18.50;;;13.30;;
44452;SDS011;30155;52.164;21.236;2024-01-30T12:35:24;18.30;;;12.60;;
44452;SDS011;30155;52.164;21.236;2024-01-30T12:40:18;19.00;;;13.10;;
44452;SDS011;30155;52.164;21.236;2024-01-30T12:45:11;19.20;;;13.00;;
44452;SDS011;30155;52.164;21.236;2024-01-30T12:50:06;17.70;;;12.60;;
44452;SDS011;30155;52.164;21.236;2024-01-30T12:54:59;20.10;;;12.90;;
44452;SDS011;30155;52.164;21.236;2024-01-30T12:59:52;20.90;;;12.90;;
44452;SDS011;30155;52.164;21.236;2024-01-30T13:04:44;18.70;;;13.40;;
44452;SDS011;30155;52.164;21.236;2024-01-30T13:09:40;21.20;;;13.30;;
44452;SDS011;30155;52.164;21.236;2024-01-30T13:14:33;18.70;;;12.80;;
44452;SDS011;30155;52.164;21.236;2024-01-30T13:19:26;17.60;;;12.90;;
44452;SDS011;30155;52.164;21.236;2024-01-30T13:24:19;17.00;;;11.10;;
44452;SDS011;30155;52.164;21.236;2024-01-30T13:29:13;15.90;;;12.00;;
44452;SDS011;30155;52.164;21.236;2024-01-30T13:34:05;18.00;;;11.20;;
44452;SDS011;30155;52.164;21.236;2024-01-30T13:38:59;17.40;;;12.00;;
44452;SDS011;30155;52.164;21.236;2024-01-30T13:43:52;15.90;;;11.50;;
44452;SDS011;30155;52.164;21.236;2024-01-30T13:48:45;16.50;;;11.60;;
44452;SDS011;30155;52.164;21.236;2024-01-30T13:53:38;19.20;;;11.40;;
44452;SDS011;30155;52.164;21.236;2024-01-30T13:58:32;13.60;;;9.60;;
44452;SDS011;30155;52.164;21.236;2024-01-30T14:03:26;16.10;;;9.60;;
44452;SDS011;30155;52.164;21.236;2024-01-30T14:08:19;19.80;;;10.80;;
44452;SDS011;30155;52.164;21.236;2024-01-30T14:13:13;15.90;;;10.80;;
44452;SDS011;30155;52.164;21.236;2024-01-30T14:18:06;14.00;;;9.90;;
44452;SDS011;30155;52.164;21.236;2024-01-30T14:23:00;17.00;;;9.90;;
44452;SDS011;30155;52.164;21.236;2024-01-30T14:27:53;17.70;;;10.60;;
44452;SDS011;30155;52.164;21.236;2024-01-30T14:32:45;16.00;;;10.00;;
44452;SDS011;30155;52.164;21.236;2024-01-30T14:37:39;16.00;;;11.20;;
44452;SDS011;30155;52.164;21.236;2024-01-30T14:42:32;17.30;;;9.80;;
44452;SDS011;30155;52.164;21.236;2024-01-30T14:47:25;14.30;;;10.10;;
44452;SDS011;30155;52.164;21.236;2024-01-30T14:52:18;13.20;;;9.30;;
44452;SDS011;30155;52.164;21.236;2024-01-30T14:57:11;15.80;;;9.50;;
44452;SDS011;30155;52.164;21.236;2024-01-30T15:02:05;17.20;;;9.30;;
44452;SDS011;30155;52.164;21.236;2024-01-30T15:06:58;12.00;;;8.00;;
44452;SDS011;30155;52.164;21.236;2024-01-30T15:11:51;15.10;;;8.40;;
44452;SDS011;30155;52.164;21.236;2024-01-30T15:16:44;15.40;;;8.60;;
44452;SDS011;30155;52.164;21.236;2024-01-30T15:21:37;13.40;;;8.30;;
44452;SDS011;30155;52.164;21.236;2024-01-30T15:26:30;12.70;;;8.00;;
44452;SDS011;30155;52.164;21.236;2024-01-30T15:31:23;17.30;;;9.30;;
44452;SDS011;30155;52.164;21.236;2024-01-30T15:36:16;13.70;;;9.50;;
44452;SDS011;30155;52.164;21.236;2024-01-30T15:41:09;14.00;;;8.60;;
44452;SDS011;30155;52.164;21.236;2024-01-30T15:46:03;14.50;;;8.90;;
44452;SDS011;30155;52.164;21.236;2024-01-30T15:50:56;11.80;;;8.50;;
44452;SDS011;30155;52.164;21.236;2024-01-30T15:55:48;12.30;;;8.10;;
44452;SDS011;30155;52.164;21.236;2024-01-30T16:00:41;14.00;;;8.50;;
44452;SDS011;30155;52.164;21.236;2024-01-30T16:05:34;16.70;;;9.90;;
44452;SDS011;30155;52.164;21.236;2024-01-30T16:10:27;17.70;;;9.50;;
44452;SDS011;30155;52.164;21.236;2024-01-30T16:15:20;15.40;;;9.60;;
44452;SDS011;30155;52.164;21.236;2024-01-30T16:20:13;16.70;;;9.40;;
44452;SDS011;30155;52.164;21.236;2024-01-30T16:25:07;16.90;;;10.70;;
44452;SDS011;30155;52.164;21.236;2024-01-30T16:30:00;12.80;;;8.60;;
44452;SDS011;30155;52.164;21.236;2024-01-30T16:34:57;13.20;;;8.80;;
44452;SDS011;30155;52.164;21.236;2024-01-30T16:39:51;14.00;;;9.60;;
44452;SDS011;30155;52.164;21.236;2024-01-30T16:44:44;18.50;;;10.90;;
44452;SDS011;30155;52.164;21.236;2024-01-30T16:49:36;16.00;;;9.90;;
44452;SDS011;30155;52.164;21.236;2024-01-30T16:54:30;15.00;;;13.70;;
44452;SDS011;30155;52.164;21.236;2024-01-30T16:59:22;14.90;;;9.00;;
44452;SDS011;30155;52.164;21.236;2024-01-30T17:04:16;15.70;;;10.40;;
44452;SDS011;30155;52.164;21.236;2024-01-30T17:09:12;13.80;;;9.30;;
44452;SDS011;30155;52.164;21.236;2024-01-30T17:14:06;15.00;;;9.20;;
44452;SDS011;30155;52.164;21.236;2024-01-30T17:19:06;17.80;;;9.30;;
44452;SDS011;30155;52.164;21.236;2024-01-30T17:29:32;18.20;;;10.40;;
44452;SDS011;30155;52.164;21.236;2024-01-30T17:34:26;13.40;;;8.80;;
44452;SDS011;30155;52.164;21.236;2024-01-30T17:39:20;18.20;;;10.00;;
44452;SDS011;30155;52.164;21.236;2024-01-30T17:44:12;17.10;;;9.70;;
44452;SDS011;30155;52.164;21.236;2024-01-30T17:49:06;17.00;;;10.20;;
44452;SDS011;30155;52.164;21.236;2024-01-30T17:53:59;21.40;;;11.70;;
44452;SDS011;30155;52.164;21.236;2024-01-30T17:58:52;17.40;;;11.10;;
44452;SDS011;30155;52.164;21.236;2024-01-30T18:03:45;17.10;;;9.80;;
44452;SDS011;30155;52.164;21.236;2024-01-30T18:08:44;18.30;;;11.20;;
44452;SDS011;30155;52.164;21.236;2024-01-30T18:13:43;18.40;;;11.20;;
44452;SDS011;30155;52.164;21.236;2024-01-30T18:18:36;17.20;;;12.00;;
44452;SDS011;30155;52.164;21.236;2024-01-30T18:23:29;18.20;;;10.80;;
44452;SDS011;30155;52.164;21.236;2024-01-30T18:28:22;26.20;;;14.40;;
44452;SDS011;30155;52.164;21.236;2024-01-30T18:33:15;22.40;;;13.30;;
44452;SDS011;30155;52.164;21.236;2024-01-30T18:38:08;28.70;;;16.60;;
44452;SDS011;30155;52.164;21.236;2024-01-30T18:43:00;26.60;;;14.80;;
44452;SDS011;30155;52.164;21.236;2024-01-30T18:47:56;22.50;;;15.20;;
44452;SDS011;30155;52.164;21.236;2024-01-30T18:52:50;28.90;;;17.40;;
44452;SDS011;30155;52.164;21.236;2024-01-30T18:57:43;26.80;;;15.40;;
44452;SDS011;30155;52.164;21.236;2024-01-30T19:02:36;29.80;;;17.80;;
44452;SDS011;30155;52.164;21.236;2024-01-30T19:07:29;28.70;;;17.70;;
44452;SDS011;30155;52.164;21.236;2024-01-30T19:12:22;31.50;;;18.20;;
44452;SDS011;30155;52.164;21.236;2024-01-30T19:17:15;31.00;;;19.00;;
44452;SDS011;30155;52.164;21.236;2024-01-30T19:22:10;36.10;;;19.70;;
44452;SDS011;30155;52.164;21.236;2024-01-30T19:27:03;28.40;;;18.00;;
44452;SDS011;30155;52.164;21.236;2024-01-30T19:31:56;37.20;;;19.20;;
44452;SDS011;30155;52.164;21.236;2024-01-30T19:36:49;34.50;;;21.10;;
44452;SDS011;30155;52.164;21.236;2024-01-30T19:41:41;38.50;;;22.10;;
44452;SDS011;30155;52.164;21.236;2024-01-30T19:46:35;35.40;;;21.10;;
44452;SDS011;30155;52.164;21.236;2024-01-30T19:51:29;36.00;;;20.60;;
44452;SDS011;30155;52.164;21.236;2024-01-30T19:56:22;35.40;;;22.10;;
44452;SDS011;30155;52.164;21.236;2024-01-30T20:01:15;34.70;;;23.60;;
44452;SDS011;30155;52.164;21.236;2024-01-30T20:06:09;38.40;;;22.00;;
44452;SDS011;30155;52.164;21.236;2024-01-30T20:11:02;36.00;;;21.20;;
44452;SDS011;30155;52.164;21.236;2024-01-30T20:15:55;37.20;;;21.80;;
44452;SDS011;30155;52.164;21.236;2024-01-30T20:20:49;35.10;;;21.90;;
44452;SDS011;30155;52.164;21.236;2024-01-30T20:25:42;37.30;;;20.70;;
44452;SDS011;30155;52.164;21.236;2024-01-30T20:36:45;35.70;;;20.50;;
44452;SDS011;30155;52.164;21.236;2024-01-30T20:41:39;34.00;;;20.70;;
44452;SDS011;30155;52.164;21.236;2024-01-30T20:46:31;39.60;;;21.30;;
44452;SDS011;30155;52.164;21.236;2024-01-30T20:51:25;33.50;;;22.10;;
44452;SDS011;30155;52.164;21.236;2024-01-30T20:56:17;41.80;;;23.00;;
44452;SDS011;30155;52.164;21.236;2024-01-30T21:01:10;31.90;;;19.30;;
44452;SDS011;30155;52.164;21.236;2024-01-30T21:06:03;34.50;;;20.20;;
44452;SDS011;30155;52.164;21.236;2024-01-30T21:10:56;37.20;;;20.10;;
44452;SDS011;30155;52.164;21.236;2024-01-30T21:15:50;32.90;;;19.60;;
44452;SDS011;30155;52.164;21.236;2024-01-30T21:20:44;33.90;;;21.70;;
44452;SDS011;30155;52.164;21.236;2024-01-30T21:25:42;36.20;;;21.00;;
44452;SDS011;30155;52.164;21.236;2024-01-30T21:30:34;36.60;;;21.60;;
44452;SDS011;30155;52.164;21.236;2024-01-30T21:35:27;38.30;;;20.50;;
44452;SDS011;30155;52.164;21.236;2024-01-30T21:40:21;35.00;;;20.30;;
44452;SDS011;30155;52.164;21.236;2024-01-30T21:45:13;37.10;;;22.80;;
44452;SDS011;30155;52.164;21.236;2024-01-30T21:50:06;35.00;;;21.40;;
44452;SDS011;30155;52.164;21.236;2024-01-30T21:55:08;36.00;;;20.20;;
44452;SDS011;30155;52.164;21.236;2024-01-30T22:00:10;36.00;;;22.20;;
44452;SDS011;30155;52.164;21.236;2024-01-30T22:05:04;43.90;;;24.10;;
44452;SDS011;30155;52.164;21.236;2024-01-30T22:09:57;39.70;;;23.10;;
44452;SDS011;30155;52.164;21.236;2024-01-30T22:14:50;37.40;;;23.30;;
44452;SDS011;30155;52.164;21.236;2024-01-30T22:19:43;36.20;;;21.00;;
44452;SDS011;30155;52.164;21.236;2024-01-30T22:24:36;42.00;;;22.30;;
44452;SDS011;30155;52.164;21.236;2024-01-30T22:29:29;37.50;;;23.20;;
44452;SDS011;30155;52.164;21.236;2024-01-30T22:34:22;40.90;;;22.00;;
44452;SDS011;30155;52.164;21.236;2024-01-30T22:39:15;42.20;;;24.30;;
44452;SDS011;30155;52.164;21.236;2024-01-30T22:44:08;40.50;;;22.20;;
44452;SDS011;30155;52.164;21.236;2024-01-30T22:49:01;38.70;;;23.30;;
44452;SDS011;30155;52.164;21.236;2024-01-30T22:53:54;35.30;;;21.40;;
44452;SDS011;30155;52.164;21.236;2024-01-30T22:58:47;41.30;;;23.90;;
44452;SDS011;30155;52.164;21.236;2024-01-30T23:03:40;39.80;;;23.20;;
44452;SDS011;30155;52.164;21.236;2024-01-30T23:08:33;44.50;;;24.70;;
44452;SDS011;30155;52.164;21.236;2024-01-30T23:13:25;36.70;;;22.00;;
44452;SDS011;30155;52.164;21.236;2024-01-30T23:18:18;42.10;;;22.40;;
44452;SDS011;30155;52.164;21.236;2024-01-30T23:23:11;37.40;;;24.50;;
44452;SDS011;30155;52.164;21.236;2024-01-30T23:28:07;32.30;;;20.20;;
44452;SDS011;30155;52.164;21.236;2024-01-30T23:33:01;37.00;;;22.20;;
44452;SDS011;30155;52.164;21.236;2024-01-30T23:37:54;40.30;;;23.30;;
44452;SDS011;30155;52.164;21.236;2024-01-30T23:42:46;41.00;;;24.10;;
44452;SDS011;30155;52.164;21.236;2024-01-30T23:47:39;36.10;;;22.10;;
44452;SDS011;30155;52.164;21.236;2024-01-30T23:52:32;39.60;;;20.80;;
44452;SDS011;30155;52.164;21.236;2024-01-30T23:57:25;40.50;;;22.80;;
